createdAt,value
2023-02-11T00:01:25.266Z,17.60
2023-02-11T00:03:54.436Z,18.60
2023-02-11T00:06:24.523Z,20.90
2023-02-11T00:08:53.085Z,17.93
2023-02-11T00:11:21.994Z,20.40
2023-02-11T00:13:50.282Z,18.98
2023-02-11T00:16:19.116Z,19.50
2023-02-11T00:18:46.703Z,16.38
2023-02-11T00:21:16.749Z,18.80
2023-02-11T00:23:44.574Z,17.33
2023-02-11T00:26:13.344Z,18.42
2023-02-11T00:28:40.977Z,18.15
2023-02-11T00:31:08.807Z,17.63
2023-02-11T00:33:36.540Z,19.50
2023-02-11T00:36:06.226Z,20.73
2023-02-11T00:38:35.433Z,20.55
2023-02-11T00:41:03.042Z,22.70
2023-02-11T00:43:30.721Z,17.60
2023-02-11T00:45:58.433Z,17.83
2023-02-11T00:48:26.234Z,22.88
2023-02-11T00:50:58.625Z,19.10
2023-02-11T00:53:26.311Z,19.00
2023-02-11T00:55:55.747Z,18.67
2023-02-11T00:58:23.532Z,21.07
2023-02-11T01:00:51.095Z,15.60
2023-02-11T01:03:18.688Z,17.80
2023-02-11T01:05:46.301Z,18.73
2023-02-11T01:08:13.872Z,20.50
2023-02-11T01:10:41.417Z,19.70
2023-02-11T01:13:10.516Z,23.08
2023-02-11T01:15:38.372Z,18.02
2023-02-11T01:18:06.266Z,16.73
2023-02-11T01:20:33.926Z,20.10
2023-02-11T01:23:01.569Z,18.80
2023-02-11T01:25:29.126Z,14.57
2023-02-11T01:27:56.738Z,19.80
2023-02-11T01:30:25.844Z,21.35
2023-02-11T01:32:54.442Z,21.75
2023-02-11T01:35:22.092Z,16.57
2023-02-11T01:37:49.732Z,16.45
2023-02-11T01:40:18.693Z,19.75
2023-02-11T01:42:49.369Z,16.88
2023-02-11T01:45:37.257Z,20.15
2023-02-11T01:48:06.557Z,15.37
2023-02-11T01:50:36.164Z,13.52
2023-02-11T01:53:24.088Z,18.17
2023-02-11T01:56:09.590Z,17.75
2023-02-11T01:58:39.415Z,15.30
2023-02-11T02:01:08.218Z,18.83
2023-02-11T02:03:38.824Z,17.42
2023-02-11T02:06:08.935Z,12.77
2023-02-11T02:08:40.102Z,17.70
2023-02-11T02:11:08.100Z,12.52
2023-02-11T02:13:36.218Z,15.53
2023-02-11T02:16:07.870Z,14.30
2023-02-11T02:18:43.751Z,17.25
2023-02-11T02:21:37.998Z,17.50
2023-02-11T02:24:23.437Z,17.92
2023-02-11T02:27:05.895Z,13.20
2023-02-11T02:29:50.609Z,12.95
2023-02-11T02:32:30.951Z,15.77
2023-02-11T02:35:05.500Z,14.70
2023-02-11T02:37:36.072Z,14.00
2023-02-11T02:40:05.628Z,15.03
2023-02-11T02:42:37.651Z,12.65
2023-02-11T02:45:05.568Z,17.17
2023-02-11T02:47:34.506Z,13.57
2023-02-11T02:50:02.295Z,11.68
2023-02-11T02:52:35.629Z,13.07
2023-02-11T02:55:10.153Z,14.25
2023-02-11T02:57:42.844Z,12.73
2023-02-11T03:00:15.948Z,9.45
2023-02-11T03:02:50.971Z,11.68
2023-02-11T03:05:20.500Z,10.73
2023-02-11T03:07:53.240Z,13.02
2023-02-11T03:10:22.783Z,11.68
2023-02-11T03:12:51.991Z,11.07
2023-02-11T03:15:20.483Z,17.85
2023-02-11T03:17:52.048Z,13.13
2023-02-11T03:20:21.351Z,16.23
2023-02-11T03:22:49.715Z,15.38
2023-02-11T03:25:17.995Z,14.63
2023-02-11T03:27:48.100Z,14.25
2023-02-11T03:30:17.616Z,16.57
2023-02-11T03:32:48.024Z,11.48
2023-02-11T03:35:20.163Z,11.23
2023-02-11T03:37:52.354Z,12.27
2023-02-11T03:40:21.138Z,10.20
2023-02-11T03:42:52.085Z,12.43
2023-02-11T03:45:21.585Z,11.35
2023-02-11T03:47:51.171Z,13.95
2023-02-11T03:50:21.322Z,10.73
2023-02-11T03:52:50.330Z,11.57
2023-02-11T03:55:18.776Z,10.40
2023-02-11T03:57:46.558Z,9.50
2023-02-11T04:00:14.840Z,12.00
2023-02-11T04:02:42.840Z,9.85
2023-02-11T04:05:11.931Z,10.45
2023-02-11T04:07:40.868Z,9.00
2023-02-11T04:10:08.979Z,9.73
2023-02-11T04:12:36.696Z,6.75
2023-02-11T04:15:04.515Z,7.63
2023-02-11T04:17:32.095Z,8.20
2023-02-11T04:20:03.119Z,9.97
2023-02-11T04:22:30.788Z,6.93
2023-02-11T04:24:59.919Z,11.35
2023-02-11T04:27:27.497Z,6.72
2023-02-11T04:29:55.285Z,8.48
2023-02-11T04:32:22.939Z,7.77
2023-02-11T04:34:50.622Z,6.38
2023-02-11T04:37:18.201Z,5.85
2023-02-11T04:39:46.432Z,7.40
2023-02-11T04:42:15.337Z,10.85
2023-02-11T04:44:43.002Z,9.20
2023-02-11T04:47:12.774Z,8.35
2023-02-11T04:49:40.327Z,6.28
2023-02-11T04:52:09.010Z,8.68
2023-02-11T04:54:36.682Z,5.68
2023-02-11T04:57:04.324Z,8.33
2023-02-11T04:59:33.261Z,6.18
2023-02-11T05:02:00.958Z,12.30
2023-02-11T05:04:28.593Z,10.00
2023-02-11T05:06:58.595Z,7.18
2023-02-11T05:09:26.481Z,8.00
2023-02-11T05:11:54.689Z,13.85
2023-02-11T05:14:22.320Z,11.30
2023-02-11T05:16:52.002Z,8.35
2023-02-11T05:19:19.794Z,8.68
2023-02-11T05:22:01.395Z,9.60
2023-02-11T05:24:29.690Z,11.38
2023-02-11T05:26:57.871Z,12.02
2023-02-11T05:29:25.462Z,11.85
2023-02-11T05:31:55.172Z,8.90
2023-02-11T05:34:22.859Z,8.80
2023-02-11T05:36:50.450Z,8.45
2023-02-11T05:39:18.110Z,8.73
2023-02-11T05:41:46.836Z,12.80
2023-02-11T05:44:14.445Z,7.90
2023-02-11T05:46:42.271Z,13.33
2023-02-11T05:49:11.284Z,13.93
2023-02-11T05:51:38.882Z,9.82
2023-02-11T05:54:06.656Z,8.20
2023-02-11T05:56:34.238Z,7.53
2023-02-11T05:59:01.816Z,10.57
2023-02-11T06:01:29.470Z,14.20
2023-02-11T06:03:57.195Z,15.88
2023-02-11T06:06:30.216Z,12.07
2023-02-11T06:08:57.820Z,10.27
2023-02-11T06:11:25.384Z,9.63
2023-02-11T06:13:53.312Z,13.88
2023-02-11T06:16:21.000Z,11.75
2023-02-11T06:18:48.631Z,10.10
2023-02-11T06:21:16.183Z,12.85
2023-02-11T06:23:47.565Z,10.53
2023-02-11T06:26:18.131Z,10.80
2023-02-11T06:28:46.153Z,12.23
2023-02-11T06:31:14.315Z,9.00
2023-02-11T06:33:41.957Z,13.10
2023-02-11T06:36:13.440Z,11.10
2023-02-11T06:38:41.247Z,8.80
2023-02-11T06:41:11.564Z,11.65
2023-02-11T06:43:43.541Z,9.88
2023-02-11T06:46:11.101Z,11.75
2023-02-11T06:48:38.870Z,11.10
2023-02-11T06:51:09.527Z,10.45
2023-02-11T06:53:37.839Z,11.75
2023-02-11T06:56:05.784Z,14.40
2023-02-11T06:58:34.840Z,11.48
2023-02-11T07:01:06.278Z,16.07
2023-02-11T07:03:34.800Z,13.23
2023-02-11T07:06:02.549Z,11.60
2023-02-11T07:08:30.432Z,14.65
2023-02-11T07:10:58.043Z,8.68
2023-02-11T07:13:25.774Z,14.67
2023-02-11T07:15:54.865Z,10.95
2023-02-11T07:18:22.494Z,15.05
2023-02-11T07:20:50.122Z,11.50
2023-02-11T07:23:17.768Z,13.52
2023-02-11T07:25:45.329Z,12.83
2023-02-11T07:28:12.929Z,13.63
2023-02-11T07:30:40.621Z,10.60
2023-02-11T07:33:09.496Z,11.77
2023-02-11T07:35:37.096Z,17.65
2023-02-11T07:38:07.229Z,10.53
2023-02-11T07:40:34.748Z,11.85
2023-02-11T07:43:02.948Z,13.93
2023-02-11T07:45:30.512Z,12.88
2023-02-11T07:47:58.263Z,10.68
2023-02-11T07:50:27.380Z,12.63
2023-02-11T07:52:54.992Z,14.85
2023-02-11T07:55:22.563Z,14.35
2023-02-11T07:57:50.941Z,9.70
2023-02-11T08:00:21.258Z,11.80
2023-02-11T08:02:48.934Z,11.80
2023-02-11T08:05:16.524Z,10.57
2023-02-11T08:07:46.449Z,9.50
2023-02-11T08:10:14.052Z,13.02
2023-02-11T08:12:42.483Z,7.50
2023-02-11T08:15:10.645Z,12.00
2023-02-11T08:17:38.369Z,11.95
2023-02-11T08:20:06.795Z,11.50
2023-02-11T08:22:35.027Z,11.10
2023-02-11T08:25:04.031Z,10.98
2023-02-11T08:27:32.040Z,13.83
2023-02-11T08:30:00.337Z,14.82
2023-02-11T08:32:27.935Z,20.63
2023-02-11T08:34:55.807Z,15.63
2023-02-11T08:37:24.053Z,16.20
2023-02-11T08:39:52.062Z,13.93
2023-02-11T08:42:23.833Z,17.30
2023-02-11T08:44:51.800Z,13.00
2023-02-11T08:47:19.376Z,13.70
2023-02-11T08:49:46.988Z,10.95
2023-02-11T08:52:14.667Z,13.57
2023-02-11T08:54:42.214Z,12.98
2023-02-11T08:57:10.074Z,14.93
2023-02-11T08:59:39.996Z,11.40
2023-02-11T09:02:08.449Z,14.02
2023-02-11T09:04:36.234Z,11.77
2023-02-11T09:07:04.701Z,12.73
2023-02-11T09:09:32.821Z,12.88
2023-02-11T09:12:01.546Z,12.30
2023-02-11T09:14:29.394Z,11.20
2023-02-11T09:16:58.577Z,11.37
2023-02-11T09:19:26.285Z,13.20
2023-02-11T09:21:54.355Z,15.13
2023-02-11T09:24:21.975Z,17.77
2023-02-11T09:26:50.335Z,12.98
2023-02-11T09:29:18.118Z,11.10
2023-02-11T09:31:45.752Z,9.05
2023-02-11T09:34:16.333Z,10.65
2023-02-11T09:36:44.164Z,12.85
2023-02-11T09:39:13.367Z,10.57
2023-02-11T09:41:51.775Z,12.43
2023-02-11T09:44:21.074Z,10.48
2023-02-11T09:46:51.943Z,13.25
2023-02-11T09:49:23.046Z,12.65
2023-02-11T09:51:53.679Z,9.10
2023-02-11T09:54:24.513Z,11.33
2023-02-11T09:56:52.868Z,9.85
2023-02-11T09:59:20.492Z,11.25
2023-02-11T10:01:49.263Z,11.90
2023-02-11T10:04:21.058Z,12.55
2023-02-11T10:06:50.947Z,10.23
2023-02-11T10:09:25.331Z,12.85
2023-02-11T10:11:59.322Z,12.05
2023-02-11T10:14:32.671Z,11.48
2023-02-11T10:17:05.439Z,11.38
2023-02-11T10:19:40.556Z,12.30
2023-02-11T10:22:12.836Z,12.43
2023-02-11T10:24:42.774Z,9.73
2023-02-11T10:27:15.754Z,9.20
2023-02-11T10:29:46.719Z,15.38
2023-02-11T10:32:17.607Z,10.03
2023-02-11T10:34:45.332Z,10.35
2023-02-11T10:37:14.588Z,9.45
2023-02-11T10:39:42.457Z,8.63
2023-02-11T10:42:15.947Z,11.18
2023-02-11T10:44:55.621Z,12.23
2023-02-11T10:47:24.627Z,9.40
2023-02-11T10:49:52.171Z,8.20
2023-02-11T10:52:22.834Z,8.82
2023-02-11T10:55:05.414Z,9.90
2023-02-11T10:57:35.137Z,13.93
2023-02-11T11:00:20.969Z,10.20
2023-02-11T11:02:55.258Z,9.45
2023-02-11T11:05:26.802Z,9.93
2023-02-11T11:07:57.344Z,8.55
2023-02-11T11:10:35.605Z,9.83
2023-02-11T11:13:03.563Z,11.27
2023-02-11T11:15:32.648Z,6.53
2023-02-11T11:18:22.158Z,7.78
2023-02-11T11:20:57.185Z,7.10
2023-02-11T11:23:26.943Z,10.30
2023-02-11T11:26:02.708Z,9.88
2023-02-11T11:28:32.839Z,8.65
2023-02-11T11:31:05.225Z,9.65
2023-02-11T11:33:34.999Z,16.38
2023-02-11T11:36:04.277Z,11.77
2023-02-11T11:38:34.248Z,8.43
2023-02-11T11:41:15.567Z,8.32
2023-02-11T11:43:54.841Z,5.00
2023-02-11T11:46:26.070Z,5.15
2023-02-11T11:48:55.841Z,6.00
2023-02-11T11:51:25.045Z,4.00
2023-02-11T11:53:58.095Z,5.30
2023-02-11T11:56:32.392Z,4.82
2023-02-11T11:59:01.644Z,5.15
2023-02-11T12:01:35.778Z,4.77
2023-02-11T12:04:12.155Z,3.65
2023-02-11T12:06:53.496Z,2.85
2023-02-11T12:09:25.824Z,4.03
2023-02-11T12:12:01.023Z,5.38
2023-02-11T12:14:32.305Z,4.03
2023-02-11T12:17:03.818Z,3.63
2023-02-11T12:19:37.817Z,4.68
2023-02-11T12:22:10.640Z,5.15
2023-02-11T12:24:54.550Z,6.90
2023-02-11T12:27:29.164Z,5.37
2023-02-11T12:30:03.066Z,4.70
2023-02-11T12:32:41.530Z,7.30
2023-02-11T12:35:25.232Z,8.52
2023-02-11T12:38:08.255Z,4.50
2023-02-11T12:40:41.438Z,5.00
2023-02-11T12:43:16.832Z,6.80
2023-02-11T12:46:00.380Z,7.50
2023-02-11T12:48:36.313Z,4.85
2023-02-11T12:51:08.390Z,5.28
2023-02-11T12:53:56.740Z,5.20
2023-02-11T12:56:28.164Z,4.82
2023-02-11T12:58:58.404Z,6.20
2023-02-11T13:01:28.781Z,6.20
2023-02-11T13:03:59.378Z,6.88
2023-02-11T13:06:30.216Z,3.80
2023-02-11T13:09:00.805Z,4.15
2023-02-11T13:11:39.127Z,4.18
2023-02-11T13:14:09.148Z,3.58
2023-02-11T13:16:37.750Z,3.50
2023-02-11T13:19:11.542Z,5.97
2023-02-11T13:21:45.146Z,4.43
2023-02-11T13:24:18.834Z,3.88
2023-02-11T13:26:51.234Z,4.20
2023-02-11T13:29:32.654Z,4.68
2023-02-11T13:32:07.141Z,2.73
2023-02-11T13:34:49.707Z,2.75
2023-02-11T13:37:22.051Z,4.13
2023-02-11T13:39:58.221Z,2.83
2023-02-11T13:42:30.163Z,5.60
2023-02-11T13:44:58.122Z,5.67
2023-02-11T13:47:28.038Z,3.72
2023-02-11T13:49:55.898Z,6.00
2023-02-11T13:52:25.924Z,6.13
2023-02-11T13:54:55.864Z,5.03
2023-02-11T13:57:27.213Z,4.53
2023-02-11T13:59:57.101Z,3.80
2023-02-11T14:02:44.514Z,4.65
2023-02-11T14:05:51.274Z,5.07
2023-02-11T14:08:40.849Z,6.20
2023-02-11T14:11:12.854Z,6.80
2023-02-11T14:13:55.293Z,4.50
2023-02-11T14:16:37.606Z,6.00
2023-02-11T14:19:06.784Z,4.68
2023-02-11T14:21:36.906Z,6.25
2023-02-11T14:24:23.420Z,5.20
2023-02-11T14:26:53.112Z,3.92
2023-02-11T14:29:22.807Z,4.72
2023-02-11T14:31:54.834Z,4.50
2023-02-11T14:34:32.847Z,5.15
2023-02-11T14:37:05.512Z,5.13
2023-02-11T14:39:40.911Z,4.22
2023-02-11T14:42:15.507Z,3.17
2023-02-11T14:44:43.167Z,4.93
2023-02-11T14:47:23.360Z,4.68
2023-02-11T14:49:52.292Z,6.70
2023-02-11T14:52:26.558Z,6.72
2023-02-11T14:54:58.949Z,4.00
2023-02-11T14:57:27.774Z,4.18
2023-02-11T14:59:59.019Z,4.93
2023-02-11T15:02:30.159Z,4.63
2023-02-11T15:05:14.307Z,4.72
2023-02-11T15:07:44.386Z,6.07
2023-02-11T15:10:16.956Z,7.25
2023-02-11T15:12:47.754Z,6.32
2023-02-11T15:15:16.049Z,6.13
2023-02-11T15:17:45.636Z,6.20
2023-02-11T15:20:21.192Z,4.78
2023-02-11T15:23:03.642Z,5.93
2023-02-11T15:25:34.067Z,9.27
2023-02-11T15:28:01.965Z,8.57
2023-02-11T15:30:35.106Z,6.65
2023-02-11T15:33:06.107Z,5.85
2023-02-11T15:35:35.071Z,5.20
2023-02-11T15:38:05.948Z,5.95
2023-02-11T15:40:36.318Z,5.63
2023-02-11T15:43:23.421Z,6.93
2023-02-11T15:45:56.187Z,7.15
2023-02-11T15:48:26.811Z,8.25
2023-02-11T15:50:55.691Z,5.95
2023-02-11T15:53:26.076Z,5.10
2023-02-11T15:55:56.185Z,7.50
2023-02-11T15:58:24.238Z,5.35
2023-02-11T16:00:54.893Z,6.63
2023-02-11T16:03:23.876Z,5.95
2023-02-11T16:05:53.396Z,5.70
2023-02-11T16:08:24.954Z,5.65
2023-02-11T16:10:58.446Z,7.93
2023-02-11T16:13:28.352Z,6.60
2023-02-11T16:15:57.808Z,5.55
2023-02-11T16:18:37.712Z,7.07
2023-02-11T16:21:08.766Z,5.53
2023-02-11T16:23:37.932Z,6.63
2023-02-11T16:26:13.751Z,5.97
2023-02-11T16:28:42.367Z,5.60
2023-02-11T16:31:10.080Z,10.20
2023-02-11T16:33:37.708Z,7.68
2023-02-11T16:36:11.268Z,5.60
2023-02-11T16:38:38.814Z,7.22
2023-02-11T16:41:06.669Z,26.70
2023-02-11T16:43:34.286Z,7.03
2023-02-11T16:46:02.164Z,18.25
2023-02-11T16:48:29.807Z,13.68
2023-02-11T16:50:57.747Z,13.90
2023-02-11T16:53:26.860Z,11.38
2023-02-11T16:56:09.475Z,11.53
2023-02-11T16:58:37.069Z,12.35
2023-02-11T17:01:04.763Z,9.52
2023-02-11T17:03:37.527Z,9.70
2023-02-11T17:06:06.990Z,8.43
2023-02-11T17:08:36.732Z,12.37
2023-02-11T17:11:04.813Z,12.40
2023-02-11T17:13:36.459Z,10.43
2023-02-11T17:16:04.261Z,11.38
2023-02-11T17:18:32.838Z,11.27
2023-02-11T17:21:01.310Z,9.67
2023-02-11T17:23:29.014Z,7.25
2023-02-11T17:25:58.891Z,8.98
2023-02-11T17:28:26.563Z,9.73
2023-02-11T17:30:54.533Z,7.97
2023-02-11T17:33:22.222Z,10.60
2023-02-11T17:35:50.338Z,13.02
2023-02-11T17:38:18.973Z,17.15
2023-02-11T17:40:46.665Z,10.68
2023-02-11T17:43:16.248Z,12.88
2023-02-11T17:45:43.975Z,10.20
2023-02-11T17:48:11.700Z,10.30
2023-02-11T17:50:39.261Z,11.45
2023-02-11T17:53:07.012Z,11.05
2023-02-11T17:55:34.992Z,8.75
2023-02-11T17:58:03.830Z,10.13
2023-02-11T18:00:33.091Z,10.43
2023-02-11T18:03:02.924Z,13.38
2023-02-11T18:05:34.383Z,10.35
2023-02-11T18:08:02.022Z,6.65
2023-02-11T18:10:29.742Z,8.20
2023-02-11T18:12:58.383Z,9.57
2023-02-11T18:15:25.966Z,10.52
2023-02-11T18:17:56.212Z,9.15
2023-02-11T18:20:23.825Z,9.50
2023-02-11T18:22:52.092Z,10.20
2023-02-11T18:25:19.932Z,10.25
2023-02-11T18:27:48.859Z,16.13
2023-02-11T18:30:17.709Z,10.45
2023-02-11T18:32:45.488Z,11.95
2023-02-11T18:35:15.612Z,9.33
2023-02-11T18:37:43.489Z,19.88
2023-02-11T18:40:11.972Z,11.27
2023-02-11T18:42:39.881Z,9.20
2023-02-11T18:45:09.407Z,8.45
2023-02-11T18:47:37.673Z,13.40
2023-02-11T18:50:05.422Z,10.80
2023-02-11T18:52:40.020Z,10.82
2023-02-11T18:55:10.931Z,11.43
2023-02-11T18:57:38.533Z,9.60
2023-02-11T19:00:06.628Z,10.60
2023-02-11T19:02:34.561Z,13.07
2023-02-11T19:05:02.445Z,12.40
2023-02-11T19:07:31.093Z,12.15
2023-02-11T19:10:00.932Z,11.75
2023-02-11T19:12:28.539Z,12.23
2023-02-11T19:14:57.965Z,19.15
2023-02-11T19:17:25.756Z,17.08
2023-02-11T19:19:53.304Z,14.80
2023-02-11T19:22:20.906Z,14.50
2023-02-11T19:24:52.221Z,12.97
2023-02-11T19:27:21.300Z,9.68
2023-02-11T19:29:49.072Z,10.43
2023-02-11T19:32:16.944Z,9.98
2023-02-11T19:34:44.570Z,10.55
2023-02-11T19:37:13.233Z,10.27
2023-02-11T19:39:41.123Z,9.93
2023-02-11T19:42:08.736Z,11.27
2023-02-11T19:44:37.625Z,8.18
2023-02-11T19:47:06.954Z,10.10
2023-02-11T19:49:34.876Z,9.63
2023-02-11T19:52:02.505Z,9.00
2023-02-11T19:54:30.241Z,7.18
2023-02-11T19:56:58.586Z,7.47
2023-02-11T19:59:26.145Z,8.32
2023-02-11T20:01:55.921Z,13.17
2023-02-11T20:04:25.025Z,9.18
2023-02-11T20:06:53.297Z,12.23
2023-02-11T20:09:21.757Z,11.45
2023-02-11T20:11:54.243Z,10.80
2023-02-11T20:14:21.808Z,11.07
2023-02-11T20:16:50.316Z,10.40
2023-02-11T20:19:21.241Z,9.93
2023-02-11T20:21:50.148Z,9.57
2023-02-11T20:24:18.813Z,12.98
2023-02-11T20:26:48.349Z,9.17
2023-02-11T20:29:16.444Z,11.45
2023-02-11T20:31:44.365Z,12.38
2023-02-11T20:34:13.570Z,10.30
2023-02-11T20:36:42.542Z,9.70
2023-02-11T20:39:17.256Z,8.73
2023-02-11T20:41:46.268Z,13.43
2023-02-11T20:44:14.360Z,11.50
2023-02-11T20:46:43.105Z,16.25
2023-02-11T20:49:11.711Z,15.13
2023-02-11T20:51:39.384Z,19.10
2023-02-11T20:54:08.540Z,19.52
2023-02-11T20:56:37.641Z,19.63
2023-02-11T20:59:05.765Z,17.55
2023-02-11T21:01:35.121Z,16.85
2023-02-11T21:04:04.844Z,15.80
2023-02-11T21:06:34.011Z,15.13
2023-02-11T21:09:02.065Z,12.20
2023-02-11T21:11:32.469Z,16.65
2023-02-11T21:14:00.377Z,13.40
2023-02-11T21:16:28.188Z,12.60
2023-02-11T21:18:56.947Z,11.90
2023-02-11T21:21:28.589Z,16.25
2023-02-11T21:23:56.906Z,15.00
2023-02-11T21:26:25.580Z,16.05
2023-02-11T21:28:55.218Z,11.93
2023-02-11T21:31:23.771Z,12.73
2023-02-11T21:33:53.125Z,17.42
2023-02-11T21:36:20.780Z,15.50
2023-02-11T21:38:48.750Z,16.08
2023-02-11T21:41:16.409Z,17.43
2023-02-11T21:43:44.046Z,15.82
2023-02-11T21:46:14.000Z,14.55
2023-02-11T21:48:42.452Z,12.32
2023-02-11T21:51:12.405Z,13.52
2023-02-11T21:53:40.134Z,15.47
2023-02-11T21:56:10.835Z,13.52
2023-02-11T21:58:38.865Z,15.82
2023-02-11T22:01:11.136Z,15.25
2023-02-11T22:03:40.349Z,15.43
2023-02-11T22:06:09.337Z,13.63
2023-02-11T22:08:37.080Z,18.08
2023-02-11T22:11:05.565Z,20.02
2023-02-11T22:13:34.175Z,19.38
2023-02-11T22:16:02.511Z,17.13
2023-02-11T22:18:31.174Z,19.90
2023-02-11T22:21:00.746Z,15.07
2023-02-11T22:23:28.516Z,20.88
2023-02-11T22:25:56.553Z,16.00
2023-02-11T22:28:25.394Z,13.20
2023-02-11T22:30:54.802Z,15.73
2023-02-11T22:33:22.925Z,12.18
2023-02-11T22:35:52.948Z,12.93
2023-02-11T22:38:22.070Z,15.48
2023-02-11T22:40:49.789Z,13.60
2023-02-11T22:43:17.344Z,14.60
2023-02-11T22:45:44.940Z,15.38
2023-02-11T22:48:12.591Z,17.02
2023-02-11T22:50:40.125Z,14.18
2023-02-11T22:53:07.685Z,15.48
2023-02-11T22:55:39.304Z,14.37
2023-02-11T22:58:06.874Z,17.80
2023-02-11T23:00:37.243Z,16.85
2023-02-11T23:03:05.141Z,13.27
2023-02-11T23:05:32.776Z,12.48
2023-02-11T23:08:00.365Z,14.53
2023-02-11T23:10:28.030Z,13.80
2023-02-11T23:12:58.987Z,16.17
2023-02-11T23:15:26.472Z,16.80
2023-02-11T23:17:54.507Z,14.02
2023-02-11T23:20:22.093Z,14.33
2023-02-11T23:22:49.673Z,14.20
2023-02-11T23:25:17.484Z,14.35
2023-02-11T23:27:45.020Z,12.73
2023-02-11T23:30:14.689Z,14.20
2023-02-11T23:32:43.165Z,12.13
2023-02-11T23:35:10.884Z,15.65
2023-02-11T23:37:38.483Z,11.10
2023-02-11T23:40:06.613Z,13.98
2023-02-11T23:42:34.115Z,13.27
2023-02-11T23:45:01.793Z,14.00
2023-02-11T23:47:30.786Z,14.27
2023-02-11T23:50:00.371Z,19.25
2023-02-11T23:52:27.912Z,16.23
2023-02-11T23:54:55.537Z,13.13
2023-02-11T23:57:23.414Z,12.40
2023-02-11T23:59:51.039Z,10.45
